createdAt,value
2023-10-23T03:48:22.643Z,4.43
2023-10-23T03:50:49.400Z,2.97
2023-10-23T03:53:16.105Z,5.13
2023-10-23T03:55:42.773Z,3.70
2023-10-23T03:58:09.537Z,3.33
2023-10-23T04:00:36.675Z,3.55
2023-10-23T04:03:03.796Z,3.70
2023-10-23T04:05:31.880Z,4.07
2023-10-23T04:07:59.592Z,3.60
2023-10-23T04:10:26.512Z,3.55
2023-10-23T04:12:53.336Z,4.45
2023-10-23T04:15:20.219Z,5.13
2023-10-23T04:17:48.027Z,5.05
2023-10-23T04:20:14.821Z,3.25
2023-10-23T04:22:41.498Z,4.38
2023-10-23T04:25:08.807Z,3.60
2023-10-23T04:27:35.570Z,3.28
2023-10-23T04:30:02.574Z,3.47
2023-10-23T04:32:29.324Z,2.85
2023-10-23T04:34:56.004Z,3.47
2023-10-23T04:37:23.129Z,3.17
2023-10-23T04:39:49.951Z,3.50
2023-10-23T04:42:16.695Z,3.17
2023-10-23T04:44:43.564Z,2.58
2023-10-23T04:47:10.289Z,3.58
2023-10-23T04:49:37.177Z,4.47
2023-10-23T04:52:04.407Z,3.30
2023-10-23T04:54:31.141Z,4.15
2023-10-23T04:56:57.820Z,3.25
2023-10-23T04:59:24.494Z,4.05
2023-10-23T05:01:51.208Z,4.25
2023-10-23T05:04:17.949Z,4.85
2023-10-23T05:06:44.679Z,5.97
2023-10-23T05:09:13.637Z,5.60
2023-10-23T05:11:40.361Z,5.20
2023-10-23T05:14:07.012Z,6.70
2023-10-23T05:16:33.764Z,7.55
2023-10-23T05:19:01.125Z,7.07
2023-10-23T05:21:27.914Z,6.18
2023-10-23T05:23:54.705Z,4.82
2023-10-23T05:26:21.358Z,3.00
2023-10-23T05:28:48.988Z,6.03
2023-10-23T05:31:16.048Z,4.93
2023-10-23T05:33:42.726Z,5.82
2023-10-23T05:36:10.919Z,4.93
2023-10-23T05:38:38.532Z,6.97
2023-10-23T05:41:09.244Z,5.38
2023-10-23T05:43:36.368Z,6.43
2023-10-23T05:46:07.241Z,6.70
2023-10-23T05:48:34.805Z,9.52
2023-10-23T05:51:04.718Z,7.90
2023-10-23T05:53:32.568Z,7.72
2023-10-23T05:56:06.632Z,9.20
2023-10-23T05:58:34.572Z,8.68
2023-10-23T06:01:08.376Z,9.52
2023-10-23T06:03:36.168Z,9.07
2023-10-23T06:06:03.347Z,7.45
2023-10-23T06:08:30.261Z,8.70
2023-10-23T06:10:57.086Z,6.30
2023-10-23T06:13:23.800Z,4.55
2023-10-23T06:15:50.729Z,4.85
2023-10-23T06:18:17.443Z,3.55
2023-10-23T06:20:44.136Z,5.05
2023-10-23T06:23:10.838Z,5.57
2023-10-23T06:25:37.502Z,6.65
2023-10-23T06:28:04.739Z,4.20
2023-10-23T06:30:31.699Z,7.28
2023-10-23T06:32:58.432Z,7.85
2023-10-23T06:35:25.300Z,6.15
2023-10-23T06:37:52.110Z,8.13
2023-10-23T06:40:19.347Z,8.05
2023-10-23T06:42:46.197Z,9.77
2023-10-23T06:45:13.158Z,10.52
2023-10-23T06:47:40.028Z,19.02
2023-10-23T06:50:07.924Z,11.02
2023-10-23T06:52:34.609Z,9.75
2023-10-23T06:55:01.233Z,10.57
2023-10-23T06:57:27.892Z,11.38
2023-10-23T06:59:55.897Z,10.60
2023-10-23T07:02:23.275Z,9.85
2023-10-23T07:04:50.173Z,9.50
2023-10-23T07:07:26.601Z,10.20
2023-10-23T07:10:00.378Z,11.10
2023-10-23T07:12:27.803Z,6.82
2023-10-23T07:14:54.488Z,7.65
2023-10-23T07:17:21.231Z,7.72
2023-10-23T07:19:47.901Z,7.65
2023-10-23T07:22:14.621Z,6.45
2023-10-23T07:24:41.309Z,6.20
2023-10-23T07:27:12.685Z,12.68
2023-10-23T07:29:39.873Z,7.85
2023-10-23T07:32:06.719Z,8.48
2023-10-23T07:34:33.444Z,6.35
2023-10-23T07:37:00.342Z,7.53
2023-10-23T07:39:27.173Z,5.13
2023-10-23T07:41:53.945Z,5.47
2023-10-23T07:44:21.757Z,5.65
2023-10-23T07:46:48.974Z,7.35
2023-10-23T07:49:15.865Z,4.72
2023-10-23T07:51:42.722Z,4.65
2023-10-23T07:54:09.513Z,3.10
2023-10-23T07:56:36.175Z,4.32
2023-10-23T07:59:03.388Z,4.65
2023-10-23T08:01:30.189Z,14.43
2023-10-23T08:03:57.248Z,12.63
2023-10-23T08:06:23.984Z,7.35
2023-10-23T08:08:50.678Z,6.93
2023-10-23T08:11:17.685Z,10.77
2023-10-23T08:13:44.582Z,12.70
2023-10-23T08:16:11.442Z,7.50
2023-10-23T08:18:41.254Z,6.78
2023-10-23T08:21:16.446Z,5.40
2023-10-23T08:23:45.993Z,7.03
2023-10-23T08:26:13.231Z,4.57
2023-10-23T08:31:17.179Z,5.38
2023-10-23T08:33:57.328Z,4.88
2023-10-23T08:36:24.159Z,7.32
2023-10-23T08:38:50.895Z,4.15
2023-10-23T08:41:17.591Z,24.33
2023-10-23T08:43:44.495Z,9.95
2023-10-23T08:46:11.316Z,8.77
2023-10-23T08:48:38.423Z,5.28
2023-10-23T08:51:07.408Z,7.32
2023-10-23T08:53:39.475Z,8.55
2023-10-23T08:56:07.106Z,5.72
2023-10-23T08:58:35.129Z,8.57
2023-10-23T09:01:02.900Z,5.97
2023-10-23T09:04:02.049Z,5.30
2023-10-23T09:06:19.409Z,4.97
2023-10-23T09:08:46.632Z,3.63
2023-10-23T09:11:13.881Z,3.30
2023-10-23T09:13:42.092Z,5.15
2023-10-23T09:16:10.475Z,3.08
2023-10-23T09:18:50.336Z,4.25
2023-10-23T09:21:17.321Z,3.10
2023-10-23T09:23:54.844Z,3.13
2023-10-23T09:26:22.836Z,3.40
2023-10-23T09:28:56.052Z,3.45
2023-10-23T09:31:23.356Z,5.50
2023-10-23T09:33:52.034Z,10.50
2023-10-23T09:36:20.010Z,5.78
2023-10-23T09:39:00.535Z,6.45
2023-10-23T09:41:28.990Z,9.63
2023-10-23T09:43:59.141Z,7.60
2023-10-23T09:46:27.107Z,6.13
2023-10-23T09:49:00.183Z,6.82
2023-10-23T09:51:41.417Z,7.10
2023-10-23T09:54:13.064Z,4.15
2023-10-23T09:56:40.859Z,3.10
2023-10-23T09:59:09.467Z,5.85
2023-10-23T10:01:43.670Z,3.70
2023-10-23T10:04:18.392Z,6.53
2023-10-23T10:06:56.450Z,3.17
2023-10-23T10:09:26.203Z,4.85
2023-10-23T10:11:58.116Z,3.78
2023-10-23T10:14:28.744Z,5.45
2023-10-23T10:16:57.001Z,4.53
2023-10-23T10:19:27.317Z,4.40
2023-10-23T10:22:09.678Z,4.53
2023-10-23T10:24:38.053Z,3.47
2023-10-23T10:27:06.033Z,3.70
2023-10-23T10:29:32.833Z,4.00
2023-10-23T10:32:10.861Z,2.67
2023-10-23T10:34:56.436Z,5.53
2023-10-23T10:37:30.055Z,2.65
2023-10-23T10:39:56.827Z,2.63
2023-10-23T10:42:25.554Z,1.92
2023-10-23T10:45:21.320Z,2.60
2023-10-23T10:47:55.369Z,3.72
2023-10-23T10:50:39.821Z,2.60
2023-10-23T10:53:08.902Z,4.22
2023-10-23T10:55:36.784Z,2.60
2023-10-23T10:58:04.934Z,1.73
2023-10-23T11:00:39.653Z,3.05
2023-10-23T11:03:08.389Z,3.25
2023-10-23T11:05:36.668Z,3.38
2023-10-23T11:08:04.870Z,4.03
2023-10-23T11:10:31.672Z,3.05
2023-10-23T11:12:59.755Z,2.88
2023-10-23T11:15:27.060Z,3.55
2023-10-23T11:17:54.004Z,3.28
2023-10-23T11:20:20.876Z,4.05
2023-10-23T11:22:50.724Z,4.40
2023-10-23T11:25:18.890Z,4.10
2023-10-23T11:27:51.721Z,4.00
2023-10-23T11:30:18.556Z,3.80
2023-10-23T11:32:45.805Z,4.43
2023-10-23T11:35:12.508Z,5.35
2023-10-23T11:37:43.130Z,3.13
2023-10-23T11:40:11.349Z,3.45
2023-10-23T11:42:47.399Z,2.83
2023-10-23T11:45:16.380Z,3.70
2023-10-23T11:47:43.493Z,2.47
2023-10-23T11:50:17.905Z,4.05
2023-10-23T11:52:47.644Z,4.20
2023-10-23T11:55:16.678Z,2.65
2023-10-23T11:57:47.268Z,3.88
2023-10-23T12:00:16.104Z,2.85
2023-10-23T12:02:44.503Z,3.28
2023-10-23T12:05:13.602Z,2.90
2023-10-23T12:07:46.879Z,2.42
2023-10-23T12:10:15.753Z,2.28
2023-10-23T12:12:44.145Z,2.17
2023-10-23T12:15:12.243Z,2.63
2023-10-23T12:17:39.505Z,2.85
2023-10-23T12:20:10.653Z,3.42
2023-10-23T12:22:38.576Z,4.30
2023-10-23T12:25:06.487Z,2.53
2023-10-23T12:27:34.942Z,4.10
2023-10-23T12:30:06.898Z,2.55
2023-10-23T12:33:13.739Z,2.55
2023-10-23T12:35:23.243Z,3.50
2023-10-23T12:37:50.307Z,3.03
2023-10-23T12:40:17.108Z,2.95
2023-10-23T12:42:43.879Z,2.58
2023-10-23T12:45:11.030Z,3.08
2023-10-23T12:47:37.919Z,3.38
2023-10-23T12:50:05.341Z,4.60
2023-10-23T12:52:32.659Z,4.43
2023-10-23T12:54:59.966Z,3.35
2023-10-23T12:57:26.848Z,2.65
2023-10-23T12:59:53.622Z,3.00
2023-10-23T13:02:20.378Z,3.00
2023-10-23T13:04:49.683Z,2.17
2023-10-23T13:07:17.005Z,3.38
2023-10-23T13:09:43.863Z,3.38
2023-10-23T13:12:10.584Z,2.60
2023-10-23T13:14:37.495Z,3.72
2023-10-23T13:17:04.309Z,2.97
2023-10-23T13:19:31.201Z,2.55
2023-10-23T13:21:57.985Z,3.13
2023-10-23T13:24:24.698Z,2.83
2023-10-23T13:26:51.482Z,3.40
2023-10-23T13:29:18.129Z,2.42
2023-10-23T13:31:49.419Z,3.25
2023-10-23T13:34:17.087Z,3.70
2023-10-23T13:36:44.200Z,4.85
2023-10-23T13:39:10.867Z,3.58
2023-10-23T13:41:37.518Z,3.55
2023-10-23T13:44:04.460Z,4.75
2023-10-23T13:46:31.360Z,3.60
2023-10-23T13:48:58.351Z,4.13
2023-10-23T13:51:25.463Z,3.17
2023-10-23T13:53:52.335Z,4.95
2023-10-23T13:56:19.059Z,4.15
2023-10-23T13:58:47.744Z,6.45
2023-10-23T14:01:15.258Z,4.60
2023-10-23T14:03:42.601Z,3.60
2023-10-23T14:06:09.425Z,3.83
2023-10-23T14:09:43.441Z,4.55
2023-10-23T14:11:57.306Z,4.13
2023-10-23T14:14:09.538Z,5.78
2023-10-23T14:16:36.372Z,6.20
2023-10-23T14:19:03.255Z,4.50
2023-10-23T14:21:30.152Z,2.88
2023-10-23T14:23:56.837Z,4.45
2023-10-23T14:26:23.668Z,3.47
2023-10-23T14:28:50.353Z,4.20
2023-10-23T14:31:17.070Z,4.75
2023-10-23T14:33:43.804Z,5.75
2023-10-23T14:36:14.706Z,4.28
2023-10-23T14:38:41.613Z,13.52
2023-10-23T14:41:08.355Z,12.68
2023-10-23T14:43:36.176Z,5.65
2023-10-23T14:46:02.986Z,4.65
2023-10-23T14:48:29.800Z,3.88
2023-10-23T14:50:57.149Z,4.85
2023-10-23T14:53:27.352Z,5.15
2023-10-23T14:55:54.103Z,5.15
2023-10-23T14:58:20.820Z,4.95
2023-10-23T15:00:47.534Z,5.13
2023-10-23T15:03:14.253Z,5.00
2023-10-23T15:05:41.065Z,5.03
2023-10-23T15:08:07.727Z,4.05
2023-10-23T15:10:38.734Z,5.78
2023-10-23T15:13:06.480Z,4.35
2023-10-23T15:15:34.599Z,4.80
2023-10-23T15:18:01.500Z,5.60
2023-10-23T15:20:32.078Z,4.00
2023-10-23T15:23:02.440Z,4.18
2023-10-23T15:25:30.427Z,4.80
2023-10-23T15:27:57.197Z,4.78
2023-10-23T15:30:23.899Z,6.10
2023-10-23T15:32:50.613Z,4.15
2023-10-23T15:35:17.720Z,6.00
2023-10-23T15:37:44.440Z,4.30
2023-10-23T15:40:11.529Z,3.90
2023-10-23T15:42:38.248Z,4.85
2023-10-23T15:45:05.485Z,5.85
2023-10-23T15:47:32.219Z,4.80
2023-10-23T15:49:58.892Z,5.80
2023-10-23T15:52:25.693Z,5.15
2023-10-23T15:54:52.442Z,5.13
2023-10-23T15:57:19.188Z,4.05
2023-10-23T15:59:45.973Z,5.43
2023-10-23T16:02:12.870Z,4.75
2023-10-23T16:04:40.422Z,5.63
2023-10-23T16:07:08.563Z,5.47
2023-10-23T16:09:35.260Z,7.15
2023-10-23T16:12:10.187Z,6.35
2023-10-23T16:14:53.785Z,5.18
2023-10-23T16:17:23.883Z,7.53
2023-10-23T16:19:51.176Z,6.40
2023-10-23T16:22:18.131Z,8.00
2023-10-23T16:24:44.845Z,5.75
2023-10-23T16:27:11.487Z,4.80
2023-10-23T16:29:38.222Z,5.78
2023-10-23T16:32:05.413Z,5.72
2023-10-23T16:34:32.634Z,7.03
2023-10-23T16:36:59.695Z,5.55
2023-10-23T16:39:31.328Z,6.65
2023-10-23T16:41:58.406Z,4.53
2023-10-23T16:44:25.061Z,8.68
2023-10-23T16:46:54.883Z,5.88
2023-10-23T16:49:21.722Z,6.38
2023-10-23T16:51:48.485Z,4.85
2023-10-23T16:54:15.154Z,6.40
2023-10-23T16:56:41.811Z,5.25
2023-10-23T16:59:08.719Z,8.25
2023-10-23T17:01:36.679Z,6.32
2023-10-23T17:04:03.623Z,6.47
2023-10-23T17:06:30.380Z,6.47
2023-10-23T17:08:57.148Z,7.45
2023-10-23T17:11:23.785Z,7.78
2023-10-23T17:13:50.480Z,7.07
2023-10-23T17:16:17.264Z,7.75
2023-10-23T17:18:44.090Z,6.43
2023-10-23T17:21:11.013Z,6.18
2023-10-23T17:23:37.716Z,8.13
2023-10-23T17:26:04.628Z,8.48
2023-10-23T17:28:31.758Z,6.65
2023-10-23T17:31:04.429Z,8.93
2023-10-23T17:33:31.865Z,6.78
2023-10-23T17:35:59.156Z,6.55
2023-10-23T17:38:26.556Z,7.47
2023-10-23T17:40:53.809Z,6.00
2023-10-23T17:43:21.262Z,6.32
2023-10-23T17:45:48.094Z,6.45
2023-10-23T17:48:15.059Z,10.63
2023-10-23T17:50:42.139Z,7.05
2023-10-23T17:53:08.802Z,11.70
2023-10-23T17:55:39.358Z,8.88
2023-10-23T17:58:06.392Z,9.45
2023-10-23T18:00:33.180Z,6.43
2023-10-23T18:03:00.001Z,7.00
2023-10-23T18:05:26.736Z,5.57
2023-10-23T18:07:54.771Z,7.68
2023-10-23T18:10:21.661Z,6.43
2023-10-23T18:12:51.138Z,8.25
2023-10-23T18:15:17.961Z,7.18
2023-10-23T18:17:44.715Z,6.10
2023-10-23T18:20:11.917Z,6.25
2023-10-23T18:22:38.629Z,7.55
2023-10-23T18:25:05.905Z,7.88
2023-10-23T18:27:32.574Z,19.50
2023-10-23T18:29:59.305Z,15.00
2023-10-23T18:32:25.981Z,6.00
2023-10-23T18:34:54.310Z,6.25
2023-10-23T18:37:21.252Z,5.55
2023-10-23T18:39:48.040Z,6.63
2023-10-23T18:42:14.875Z,7.13
2023-10-23T18:44:44.371Z,7.15
2023-10-23T18:47:11.287Z,8.82
2023-10-23T18:49:38.256Z,12.55
2023-10-23T18:52:05.290Z,8.75
2023-10-23T18:54:35.656Z,10.30
2023-10-23T18:57:02.634Z,23.50
2023-10-23T18:59:29.316Z,13.65
2023-10-23T19:01:56.077Z,8.25
2023-10-23T19:04:22.893Z,10.60
2023-10-23T19:06:49.539Z,10.63
2023-10-23T19:09:16.234Z,9.65
2023-10-23T19:11:42.916Z,6.93
2023-10-23T19:14:10.427Z,8.38
2023-10-23T19:16:37.403Z,6.63
2023-10-23T19:19:04.222Z,8.07
2023-10-23T19:21:31.037Z,6.60
2023-10-23T19:23:57.746Z,6.10
2023-10-23T19:26:24.700Z,6.25
2023-10-23T19:28:51.399Z,7.22
2023-10-23T19:31:24.113Z,6.82
2023-10-23T19:33:51.281Z,6.55
2023-10-23T19:36:20.435Z,7.47
2023-10-23T19:38:49.284Z,6.80
2023-10-23T19:41:16.592Z,6.93
2023-10-23T19:43:47.358Z,4.90
2023-10-23T19:46:14.855Z,6.63
2023-10-23T19:48:42.180Z,4.88
2023-10-23T19:51:12.796Z,8.13
2023-10-23T19:53:41.857Z,6.97
2023-10-23T19:56:14.014Z,6.63
2023-10-23T19:58:41.289Z,7.35
2023-10-23T20:01:08.130Z,8.18
2023-10-23T20:03:35.079Z,10.10
2023-10-23T20:06:01.909Z,7.57
2023-10-23T20:08:28.610Z,8.70
2023-10-23T20:10:55.510Z,7.18
2023-10-23T20:13:22.310Z,6.88
2023-10-23T20:15:49.005Z,8.27
2023-10-23T20:18:15.780Z,6.97
2023-10-23T20:20:42.472Z,5.57
2023-10-23T20:23:10.887Z,7.70
2023-10-23T20:25:37.604Z,7.50
2023-10-23T20:28:05.376Z,9.57
2023-10-23T20:30:33.743Z,6.88
2023-10-23T20:33:00.813Z,5.45
2023-10-23T20:35:27.606Z,9.35
2023-10-23T20:37:54.291Z,6.07
2023-10-23T20:40:21.438Z,6.72
2023-10-23T20:42:48.115Z,5.93
2023-10-23T20:45:14.826Z,4.38
2023-10-23T20:47:41.541Z,6.70
2023-10-23T20:50:08.551Z,6.07
2023-10-23T20:52:35.272Z,8.85
2023-10-23T20:55:02.175Z,4.05
2023-10-23T20:57:28.845Z,4.72
2023-10-23T20:59:55.479Z,6.68
2023-10-23T21:02:22.258Z,6.60
2023-10-23T21:04:48.997Z,5.63
2023-10-23T21:07:15.751Z,6.18
2023-10-23T21:09:42.785Z,4.72
2023-10-23T21:12:09.756Z,4.40
2023-10-23T21:14:47.415Z,4.50
2023-10-23T21:17:15.372Z,4.72
2023-10-23T21:19:42.515Z,7.35
2023-10-23T21:22:09.520Z,5.53
2023-10-23T21:24:36.339Z,6.50
2023-10-23T21:27:04.943Z,6.43
2023-10-23T21:29:32.063Z,4.72
2023-10-23T21:32:00.659Z,6.97
2023-10-23T21:34:28.050Z,4.88
2023-10-23T21:36:54.985Z,5.47
2023-10-23T21:39:21.677Z,4.43
2023-10-23T21:41:48.360Z,6.75
2023-10-23T21:44:15.123Z,4.65
2023-10-23T21:46:41.943Z,3.05
2023-10-23T21:49:11.403Z,6.80
2023-10-23T21:51:38.838Z,6.97
2023-10-23T21:54:06.096Z,5.20
2023-10-23T21:57:02.279Z,6.13
2023-10-23T21:59:21.068Z,5.68
2023-10-23T22:01:49.669Z,5.10
2023-10-23T22:04:18.841Z,4.53
2023-10-23T22:06:46.147Z,5.10
2023-10-23T22:09:14.547Z,5.35
2023-10-23T22:11:41.542Z,5.40
2023-10-23T22:14:08.653Z,4.43
2023-10-23T22:16:35.504Z,3.92
2023-10-23T22:19:02.361Z,7.70
2023-10-23T22:21:29.056Z,6.95
2023-10-23T22:23:55.727Z,6.90
2023-10-23T22:26:22.364Z,7.95
2023-10-23T22:28:49.014Z,5.40
2023-10-23T22:31:15.782Z,5.68
2023-10-23T22:33:42.579Z,6.82
2023-10-23T22:36:09.374Z,4.07
2023-10-23T22:38:36.108Z,5.55
2023-10-23T22:41:05.176Z,6.05
2023-10-23T22:43:32.101Z,7.47
2023-10-23T22:46:03.222Z,4.90
2023-10-23T22:48:31.417Z,7.82
2023-10-23T22:50:58.556Z,4.10
2023-10-23T22:53:25.641Z,5.35
2023-10-23T22:55:55.099Z,5.97
2023-10-23T22:58:30.121Z,6.00
